Etusivu
METAR-TAF:

METAR-TAF

Lentoasemat :

Moroni, Komorit

Leveyspiiri: 11-32S, Pituuspiiri: 043-16E, korkeus merenpinnasta: 29 m

Tämänhetkinen sää

Tämä raportti tehtiin 1 tunti ja 4 minuuttia sitten, kello 04.00 UTC
Tuuli 3 kn idästä
Lämpötila 23°C
Kosteus 94%
Ilmanpaine 1018 hPa
Näkyvyys 10 km tai enemmän
Muutamia pilviä 2000 ft:n korkeudessa

METAR: FMCH 210400Z 09003KT 9999 FEW020 23/22 Q1018 NOSIG

Aika: 08:04 (05:04 UTC)

Sääennuste

Tämä raportti tehtiin 12 tuntia ja 4 minuuttia sitten, kello 17.00 UTC
Ennuste voimassa 20. päivästä klo 18 UTC - 21. päivään klo 24 UTC
Tuuli 3 kn idästä
Näkyvyys 10 km tai enemmän
Muutamia pilviä 2000 ft:n korkeudessa
Tulossa
21. päivästä klo 05 UTC - 21. päivään klo 07 UTC
Tuuli 10 kn etelästä
Tulossa
21. päivästä klo 15 UTC - 21. päivään klo 17 UTC
Tuuli 3 kn idästä

TAF: FMCH 201700Z 2018/2124 08003KT 9999 FEW020 BECMG 2105/2107 17010KT BECMG 2115/2117 10003KT

Säähavainnot ja -ennusteet yli 4000 lentoasemalta (METAR- ja TAF-raportit).

Käytössä olevat sääasemat on merkitty karttaan keltaisilla ja punaisilla pisteillä.

Aseta hiiri pisteen päälle nähdäksesi sääaseman nimen.

Klikkaa sitten nähdäksesi säähavainnot ja -ennusteet.

Kartan vaihtaminen: klikkaa mustalla rastilla varustettuja vihreitä pisteitä, niin voit zoomata sisään; viivalla varustettua vihreää pistettä, niin voit zoomata ulos tai vihreitä nuolia, niin pääset viereisille kartoille.


METAR-TAF: